Time,TemperatureF,DewpointF,PressureIn,WindDirection,WindDirectionDegrees,WindSpeedMPH,WindSpeedGustMPH,Humidity,HourlyPrecipIn,Conditions,Clouds,dailyrainin,SoftwareType,DateUTC
2015-04-27 00:01:00,55.7,37.3,29.51,South,191,5.8,5.8,50,0.00,CLR,FEW,0.00,WeatherDisplay:10.37,2015-04-27 04:01:00,
2015-04-27 00:06:00,55.9,37.5,29.51,WSW,240,8.1,8.1,50,0.00,CLR,FEW,0.00,WeatherDisplay:10.37,2015-04-27 04:06:00,
2015-04-27 00:11:00,55.3,37.0,29.51,SSE,165,5.3,5.3,50,0.00,CLR,FEW,0.00,WeatherDisplay:10.37,2015-04-27 04:11:00,
2015-04-27 00:16:00,56.3,37.9,29.51,SW,223,4.6,4.6,50,0.00,CLR,FEW,0.00,WeatherDisplay:10.37,2015-04-27 04:16:00,
2015-04-27 00:21:00,56.5,38.1,29.51,South,189,4.6,4.6,50,0.00,CLR,FEW,0.00,WeatherDisplay:10.37,2015-04-27 04:21:00,
2015-04-27 00:26:00,56.4,38.0,29.51,South,178,6.7,6.7,50,0.00,CLR,FEW,0.00,WeatherDisplay:10.37,2015-04-27 04:26:00,
2015-04-27 00:31:00,55.9,37.5,29.51,SSW,205,4.6,4.6,50,0.00,CLR,FEW,0.00,WeatherDisplay:10.37,2015-04-27 04:31:00,
2015-04-27 00:36:00,55.2,36.9,29.51,SSW,200,2.3,2.8,50,0.00,CLR,FEW,0.00,WeatherDisplay:10.37,2015-04-27 04:36:00,
2015-04-27 00:41:00,54.1,35.9,29.51,WSW,241,2.4,3.1,50,0.00,CLR,FEW,0.00,WeatherDisplay:10.37,2015-04-27 04:41:00,
2015-04-27 00:46:00,53.1,34.9,29.51,SSE,161,2.3,2.3,50,0.00,CLR,FEW,0.00,WeatherDisplay:10.37,2015-04-27 04:46:00,
2015-04-27 00:51:00,52.3,34.2,29.51,SSW,203,3.5,3.5,50,0.00,CLR,FEW,0.00,WeatherDisplay:10.37,2015-04-27 04:51:00,
2015-04-27 00:56:00,52.0,33.9,29.51,SSW,196,3.1,3.1,50,0.00,CLR,FEW,0.00,WeatherDisplay:10.37,2015-04-27 04:56:00,
2015-04-27 01:01:00,51.7,33.6,29.51,SE,128,0.0,0.0,50,0.00,CLR,FEW,0.00,WeatherDisplay:10.37,2015-04-27 05:01:00,
2015-04-27 01:06:00,51.5,33.5,29.51,South,189,3.5,3.5,50,0.00,CLR,FEW,0.00,WeatherDisplay:10.37,2015-04-27 05:06:00,
2015-04-27 01:11:00,52.1,34.0,29.51,SSW,205,2.3,2.3,50,0.00,CLR,FEW,0.00,WeatherDisplay:10.37,2015-04-27 05:11:00,
2015-04-27 01:16:00,52.0,33.9,29.51,SSE,158,0.0,0.0,50,0.00,CLR,FEW,0.00,WeatherDisplay:10.37,2015-04-27 05:16:00,
2015-04-27 01:21:00,51.6,33.6,29.51,SSW,196,3.5,3.5,50,0.00,CLR,FEW,0.00,WeatherDisplay:10.37,2015-04-27 05:21:00,
2015-04-27 01:26:00,51.7,33.6,29.51,SSW,203,2.4,2.4,50,0.00,CLR,FEW,0.00,WeatherDisplay:10.37,2015-04-27 05:26:00,
2015-04-27 01:31:00,51.7,33.6,29.51,South,176,4.6,4.6,50,0.00,CLR,FEW,0.00,WeatherDisplay:10.37,2015-04-27 05:31:00,
2015-04-27 01:36:00,52.0,33.9,29.51,SSW,195,3.5,3.5,50,0.00,CLR,FEW,0.00,WeatherDisplay:10.37,2015-04-27 05:36:00,
2015-04-27 01:41:00,52.0,33.9,29.51,SE,144,2.3,3.0,50,0.00,CLR,FEW,0.00,WeatherDisplay:10.37,2015-04-27 05:41:00,
2015-04-27 01:46:00,52.3,34.2,29.51,SSW,192,4.6,4.6,50,0.00,CLR,FEW,0.00,WeatherDisplay:10.37,2015-04-27 05:46:00,
2015-04-27 01:51:00,52.4,34.3,29.51,SSW,192,3.9,3.9,50,0.00,CLR,FEW,0.00,WeatherDisplay:10.37,2015-04-27 05:51:00,
2015-04-27 01:57:00,52.3,34.2,29.51,South,182,5.6,5.6,50,0.00,CLR,FEW,0.00,WeatherDisplay:10.37,2015-04-27 05:57:00,
2015-04-27 02:02:00,52.9,34.8,29.50,South,169,3.5,3.5,50,0.00,CLR,FEW,0.00,WeatherDisplay:10.37,2015-04-27 06:02:00,
2015-04-27 02:07:00,54.3,36.0,29.50,South,191,8.1,8.1,50,0.00,CLR,FEW,0.00,WeatherDisplay:10.37,2015-04-27 06:07:00,
2015-04-27 02:12:00,54.5,36.2,29.50,SSW,205,8.1,8.1,50,0.00,CLR,FEW,0.00,WeatherDisplay:10.37,2015-04-27 06:12:00,
2015-04-27 02:17:00,53.3,35.1,29.50,SSW,212,4.6,4.6,50,0.00,CLR,FEW,0.00,WeatherDisplay:10.37,2015-04-27 06:17:00,
2015-04-27 02:22:00,52.8,34.7,29.50,SSW,213,9.2,9.2,50,0.00,CLR,FEW,0.00,WeatherDisplay:10.37,2015-04-27 06:22:00,
2015-04-27 02:27:00,52.7,34.6,29.50,SW,236,8.5,8.5,50,0.00,CLR,FEW,0.00,WeatherDisplay:10.37,2015-04-27 06:27:00,
2015-04-27 02:32:00,53.1,34.9,29.50,SSW,199,9.2,9.2,50,0.00,CLR,FEW,0.00,WeatherDisplay:10.37,2015-04-27 06:32:00,
2015-04-27 02:37:00,53.0,34.8,29.50,SSW,198,8.1,8.1,50,0.00,CLR,FEW,0.00,WeatherDisplay:10.37,2015-04-27 06:37:00,
2015-04-27 02:42:00,53.1,34.9,29.50,South,182,9.2,9.2,50,0.00,CLR,FEW,0.00,WeatherDisplay:10.37,2015-04-27 06:42:00,
2015-04-27 02:47:00,53.4,35.2,29.50,SW,222,6.9,6.9,50,0.00,CLR,FEW,0.00,WeatherDisplay:10.37,2015-04-27 06:47:00,
2015-04-27 02:52:00,52.2,34.1,29.50,WSW,258,4.6,4.6,50,0.00,CLR,FEW,0.00,WeatherDisplay:10.37,2015-04-27 06:52:00,
2015-04-27 02:57:00,52.2,34.1,29.50,SSW,198,5.9,5.9,50,0.00,CLR,FEW,0.00,WeatherDisplay:10.37,2015-04-27 06:57:00,
2015-04-27 03:02:00,52.4,34.3,29.50,SW,223,6.9,6.9,50,0.00,CLR,FEW,0.00,WeatherDisplay:10.37,2015-04-27 07:02:00,
2015-04-27 03:07:00,53.3,35.1,29.50,South,175,3.5,3.5,50,0.00,CLR,FEW,0.00,WeatherDisplay:10.37,2015-04-27 07:07:00,
2015-04-27 03:12:00,53.0,34.8,29.50,SSW,196,6.9,6.9,50,0.00,CLR,FEW,0.00,WeatherDisplay:10.37,2015-04-27 07:12:00,
2015-04-27 03:17:00,53.0,34.8,29.50,WSW,246,4.6,4.6,50,0.00,CLR,FEW,0.00,WeatherDisplay:10.37,2015-04-27 07:17:00,
2015-04-27 03:22:00,52.5,34.4,29.50,SSW,195,5.8,5.8,50,0.00,CLR,FEW,0.00,WeatherDisplay:10.37,2015-04-27 07:22:00,
2015-04-27 03:27:00,53.0,34.8,29.50,SW,220,7.5,7.5,50,0.00,CLR,FEW,0.00,WeatherDisplay:10.37,2015-04-27 07:27:00,
2015-04-27 03:32:00,53.3,35.1,29.50,South,185,3.5,3.5,50,0.00,CLR,FEW,0.00,WeatherDisplay:10.37,2015-04-27 07:32:00,
2015-04-27 03:37:00,53.0,34.8,29.50,WSW,253,8.1,8.1,50,0.00,CLR,FEW,0.00,WeatherDisplay:10.37,2015-04-27 07:37:00,
2015-04-27 03:42:00,52.4,34.3,29.50,SSW,200,3.5,3.5,50,0.00,CLR,FEW,0.00,WeatherDisplay:10.37,2015-04-27 07:42:00,
2015-04-27 03:47:00,52.7,34.6,29.50,SW,227,6.9,6.9,50,0.00,CLR,FEW,0.00,WeatherDisplay:10.37,2015-04-27 07:47:00,
2015-04-27 03:52:00,52.9,34.8,29.49,South,171,6.9,6.9,50,0.00,CLR,FEW,0.00,WeatherDisplay:10.37,2015-04-27 07:52:00,
2015-04-27 03:57:00,52.7,34.6,29.50,SSW,193,5.8,5.8,50,0.00,CLR,FEW,0.00,WeatherDisplay:10.37,2015-04-27 07:57:00,
2015-04-27 04:02:00,52.5,34.4,29.49,SW,216,4.6,4.6,50,0.00,CLR,FEW,0.00,WeatherDisplay:10.37,2015-04-27 08:02:00,
2015-04-27 04:07:00,52.0,33.9,29.49,SSW,209,6.9,6.9,50,0.00,CLR,FEW,0.00,WeatherDisplay:10.37,2015-04-27 08:07:00,
2015-04-27 04:12:00,51.7,33.6,29.49,SSW,198,5.8,5.8,50,0.00,CLR,FEW,0.00,WeatherDisplay:10.37,2015-04-27 08:12:00,
2015-04-27 04:17:00,51.8,33.7,29.49,SW,222,3.5,3.5,50,0.00,CLR,FEW,0.00,WeatherDisplay:10.37,2015-04-27 08:17:00,
2015-04-27 04:22:00,51.6,33.6,29.49,SSW,200,5.8,5.8,50,0.00,CLR,FEW,0.00,WeatherDisplay:10.37,2015-04-27 08:22:00,
2015-04-27 04:27:00,51.0,33.0,29.49,SSW,198,6.9,6.9,50,0.00,CLR,FEW,0.00,WeatherDisplay:10.37,2015-04-27 08:27:00,
2015-04-27 04:32:00,50.7,32.7,29.49,SSW,196,5.8,5.8,50,0.00,CLR,FEW,0.00,WeatherDisplay:10.37,2015-04-27 08:32:00,
2015-04-27 04:37:00,50.6,32.6,29.49,SSW,209,4.7,4.7,50,0.00,CLR,FEW,0.00,WeatherDisplay:10.37,2015-04-27 08:37:00,
2015-04-27 04:42:00,50.6,32.6,29.49,South,185,7.7,7.7,50,0.00,CLR,FEW,0.00,WeatherDisplay:10.37,2015-04-27 08:42:00,
2015-04-27 04:47:00,50.8,32.8,29.49,SSW,192,5.8,5.8,50,0.00,CLR,FEW,0.00,WeatherDisplay:10.37,2015-04-27 08:47:00,
2015-04-27 04:52:00,50.8,32.8,29.49,SW,220,5.8,5.8,50,0.00,CLR,FEW,0.00,WeatherDisplay:10.37,2015-04-27 08:52:00,
2015-04-27 04:57:00,51.0,33.0,29.49,SW,216,4.6,4.6,50,0.00,CLR,FEW,0.00,WeatherDisplay:10.37,2015-04-27 08:57:00,
2015-04-27 05:02:00,50.9,32.9,29.49,SW,215,0.0,0.0,50,0.00,CLR,FEW,0.00,WeatherDisplay:10.37,2015-04-27 09:02:00,
2015-04-27 05:07:00,50.8,32.8,29.49,WSW,243,0.0,0.0,50,0.00,CLR,FEW,0.00,WeatherDisplay:10.37,2015-04-27 09:07:00,
2015-04-27 05:12:00,50.2,32.3,29.49,WSW,248,6.9,6.9,50,0.00,CLR,FEW,0.00,WeatherDisplay:10.37,2015-04-27 09:12:00,
2015-04-27 05:17:00,50.3,32.4,29.49,South,182,6.9,6.9,50,0.00,CLR,FEW,0.00,WeatherDisplay:10.37,2015-04-27 09:17:00,
2015-04-27 05:22:00,50.6,32.6,29.49,South,174,3.5,3.5,50,0.00,CLR,FEW,0.00,WeatherDisplay:10.37,2015-04-27 09:22:00,
2015-04-27 05:27:00,50.6,32.6,29.49,SSE,158,4.6,4.6,50,0.00,CLR,FEW,0.00,WeatherDisplay:10.37,2015-04-27 09:27:00,
2015-04-27 05:32:00,50.8,32.8,29.49,WSW,248,6.9,6.9,50,0.00,CLR,FEW,0.00,WeatherDisplay:10.37,2015-04-27 09:32:00,
2015-04-27 05:37:00,50.8,32.8,29.49,SW,216,8.1,8.1,50,0.00,CLR,FEW,0.00,WeatherDisplay:10.37,2015-04-27 09:37:00,
2015-04-27 05:42:00,50.5,32.5,29.50,WSW,250,8.1,8.1,50,0.00,CLR,FEW,0.00,WeatherDisplay:10.37,2015-04-27 09:42:00,
2015-04-27 05:47:00,49.9,32.0,29.49,WSW,239,5.8,5.8,50,0.00,CLR,FEW,0.00,WeatherDisplay:10.37,2015-04-27 09:47:00,
2015-04-27 05:52:00,50.0,32.1,29.49,SSW,209,4.6,4.6,50,0.00,CLR,FEW,0.00,WeatherDisplay:10.37,2015-04-27 09:52:00,
2015-04-27 05:57:00,49.8,31.9,29.49,SW,236,8.4,8.4,50,0.00,CLR,FEW,0.00,WeatherDisplay:10.37,2015-04-27 09:57:00,
2015-04-27 06:02:00,49.9,32.0,29.49,WSW,244,9.2,9.2,50,0.00,CLR,FEW,0.00,WeatherDisplay:10.37,2015-04-27 10:02:00,
2015-04-27 06:07:00,50.1,32.2,29.50,South,185,6.9,6.9,50,0.00,CLR,FEW,0.00,WeatherDisplay:10.37,2015-04-27 10:07:00,
2015-04-27 06:12:00,50.0,32.1,29.50,SW,217,6.9,6.9,50,0.00,CLR,FEW,0.00,WeatherDisplay:10.37,2015-04-27 10:12:00,
2015-04-27 06:17:00,50.2,32.3,29.50,South,178,4.6,4.6,50,0.00,CLR,FEW,0.00,WeatherDisplay:10.37,2015-04-27 10:17:00,
2015-04-27 06:22:00,50.9,32.9,29.50,WSW,257,5.8,5.8,50,0.00,CLR,FEW,0.00,WeatherDisplay:10.37,2015-04-27 10:22:00,
2015-04-27 06:27:00,50.8,32.8,29.50,South,181,8.1,8.1,50,0.00,CLR,FEW,0.00,WeatherDisplay:10.37,2015-04-27 10:27:00,
2015-04-27 06:32:00,51.3,33.3,29.50,SSW,210,9.2,9.2,50,0.00,CLR,FEW,0.00,WeatherDisplay:10.37,2015-04-27 10:32:00,
2015-04-27 06:37:00,52.1,34.0,29.50,SSW,203,9.2,9.2,50,0.00,CLR,FEW,0.00,WeatherDisplay:10.37,2015-04-27 10:37:00,
2015-04-27 06:42:00,52.6,34.5,29.50,SW,217,9.2,9.2,50,0.00,CLR,FEW,0.00,WeatherDisplay:10.37,2015-04-27 10:42:00,
2015-04-27 06:47:00,52.1,34.0,29.50,SSW,210,11.5,11.5,50,0.00,CLR,FEW,0.00,WeatherDisplay:10.37,2015-04-27 10:47:00,
2015-04-27 06:52:00,52.1,34.0,29.50,South,176,5.8,5.8,50,0.00,CLR,FEW,0.00,WeatherDisplay:10.37,2015-04-27 10:52:00,
2015-04-27 06:57:00,51.4,33.4,29.50,SSW,202,8.1,8.1,50,0.00,CLR,FEW,0.00,WeatherDisplay:10.37,2015-04-27 10:57:00,
2015-04-27 07:02:00,51.4,33.4,29.50,SW,230,5.8,5.8,50,0.00,CLR,FEW,0.00,WeatherDisplay:10.37,2015-04-27 11:02:00,
2015-04-27 07:07:00,51.9,33.8,29.50,WSW,250,12.7,12.7,50,0.00,CLR,FEW,0.00,WeatherDisplay:10.37,2015-04-27 11:07:00,
2015-04-27 07:12:00,52.1,34.0,29.50,SW,222,8.1,8.1,50,0.00,CLR,FEW,0.00,WeatherDisplay:10.37,2015-04-27 11:12:00,
2015-04-27 07:17:00,52.3,34.2,29.50,West,261,9.2,9.2,50,0.00,CLR,FEW,0.00,WeatherDisplay:10.37,2015-04-27 11:17:00,
2015-04-27 07:22:00,52.9,34.8,29.50,SSW,210,8.2,8.2,50,0.00,CLR,FEW,0.00,WeatherDisplay:10.37,2015-04-27 11:22:00,
2015-04-27 07:27:00,53.7,35.5,29.50,South,185,4.6,4.6,50,0.00,CLR,FEW,0.00,WeatherDisplay:10.37,2015-04-27 11:27:00,
2015-04-27 07:32:00,53.7,35.5,29.50,SSW,212,5.8,5.8,50,0.00,CLR,FEW,0.00,WeatherDisplay:10.37,2015-04-27 11:32:00,
2015-04-27 07:37:00,53.7,35.5,29.50,South,175,6.9,6.9,50,0.00,CLR,FEW,0.00,WeatherDisplay:10.37,2015-04-27 11:37:00,
2015-04-27 07:42:00,53.0,34.8,29.50,SSW,193,6.9,6.9,50,0.00,CLR,FEW,0.00,WeatherDisplay:10.37,2015-04-27 11:42:00,
2015-04-27 07:47:00,53.5,35.3,29.50,SSW,208,9.2,9.2,50,0.00,CLR,FEW,0.00,WeatherDisplay:10.37,2015-04-27 11:47:00,
2015-04-27 07:52:00,53.7,35.5,29.50,SSW,200,9.2,9.2,50,0.00,CLR,FEW,0.00,WeatherDisplay:10.37,2015-04-27 11:52:00,
2015-04-27 07:57:00,52.7,34.6,29.50,SW,234,13.1,13.1,50,0.00,CLR,FEW,0.00,WeatherDisplay:10.37,2015-04-27 11:57:00,
2015-04-27 08:02:00,51.7,33.6,29.50,WSW,243,10.4,10.4,50,0.00,CLR,FEW,0.00,WeatherDisplay:10.37,2015-04-27 12:02:00,
2015-04-27 08:07:00,50.9,32.9,29.50,SW,232,9.2,9.2,50,0.00,CLR,FEW,0.00,WeatherDisplay:10.37,2015-04-27 12:07:00,
2015-04-27 08:12:00,51.3,33.3,29.50,South,175,6.6,6.6,50,0.00,CLR,FEW,0.00,WeatherDisplay:10.37,2015-04-27 12:12:00,
2015-04-27 08:17:00,52.9,34.8,29.50,WSW,246,8.1,8.1,50,0.00,CLR,FEW,0.00,WeatherDisplay:10.37,2015-04-27 12:17:00,
2015-04-27 08:22:00,52.1,34.0,29.50,WSW,247,8.1,8.1,50,0.00,CLR,FEW,0.00,WeatherDisplay:10.37,2015-04-27 12:22:00,
2015-04-27 08:27:00,51.8,33.7,29.50,South,189,6.9,6.9,50,0.00,CLR,FEW,0.00,WeatherDisplay:10.37,2015-04-27 12:27:00,
2015-04-27 08:32:00,51.9,33.8,29.50,SW,215,6.9,6.9,50,0.00,CLR,FEW,0.00,WeatherDisplay:10.37,2015-04-27 12:32:00,
2015-04-27 08:37:00,52.6,34.5,29.50,SSW,193,9.4,9.4,50,0.00,CLR,FEW,0.00,WeatherDisplay:10.37,2015-04-27 12:37:00,
2015-04-27 08:42:00,52.6,34.5,29.50,WSW,246,8.1,8.1,50,0.00,CLR,FEW,0.00,WeatherDisplay:10.37,2015-04-27 12:42:00,
2015-04-27 08:47:00,52.2,34.1,29.50,SW,234,10.4,10.4,50,0.00,CLR,FEW,0.00,WeatherDisplay:10.37,2015-04-27 12:47:00,
2015-04-27 08:52:00,52.0,33.9,29.50,SW,226,10.2,10.2,50,0.00,CLR,FEW,0.00,WeatherDisplay:10.37,2015-04-27 12:52:00,
2015-04-27 08:57:00,52.4,34.3,29.50,SSW,192,8.1,8.1,50,0.00,CLR,FEW,0.00,WeatherDisplay:10.37,2015-04-27 12:57:00,
2015-04-27 09:02:00,54.1,35.9,29.50,SSW,202,9.2,9.2,50,0.00,CLR,FEW,0.00,WeatherDisplay:10.37,2015-04-27 13:02:00,
2015-04-27 09:07:00,55.0,36.7,29.50,SW,222,9.4,9.4,50,0.00,CLR,FEW,0.00,WeatherDisplay:10.37,2015-04-27 13:07:00,
2015-04-27 09:12:00,53.6,35.4,29.50,SW,229,9.2,9.2,50,0.00,CLR,FEW,0.00,WeatherDisplay:10.37,2015-04-27 13:12:00,
2015-04-27 09:17:00,53.8,35.6,29.50,SSE,162,10.4,10.4,50,0.00,CLR,FEW,0.00,WeatherDisplay:10.37,2015-04-27 13:17:00,
2015-04-27 09:22:00,55.5,37.1,29.50,South,188,10.4,10.4,50,0.00,CLR,FEW,0.00,WeatherDisplay:10.37,2015-04-27 13:22:00,
2015-04-27 09:27:00,57.4,38.9,29.50,South,178,11.5,11.5,50,0.00,CLR,FEW,0.00,WeatherDisplay:10.37,2015-04-27 13:27:00,
2015-04-27 09:32:00,56.4,38.0,29.50,SW,232,11.5,11.5,50,0.00,CLR,FEW,0.00,WeatherDisplay:10.37,2015-04-27 13:32:00,
2015-04-27 09:37:00,56.7,38.3,29.50,SW,222,10.4,10.4,50,0.00,CLR,FEW,0.00,WeatherDisplay:10.37,2015-04-27 13:37:00,
2015-04-27 09:42:00,56.4,38.0,29.50,WSW,247,9.2,9.2,50,0.00,CLR,FEW,0.00,WeatherDisplay:10.37,2015-04-27 13:42:00,
2015-04-27 09:47:00,55.6,37.2,29.50,SW,223,11.5,11.5,50,0.00,CLR,FEW,0.00,WeatherDisplay:10.37,2015-04-27 13:47:00,
2015-04-27 09:52:00,55.7,37.3,29.50,South,182,8.1,8.1,50,0.00,CLR,FEW,0.00,WeatherDisplay:10.37,2015-04-27 13:52:00,
2015-04-27 09:57:00,59.4,40.7,29.50,SW,234,10.3,10.3,50,0.00,CLR,FEW,0.00,WeatherDisplay:10.37,2015-04-27 13:57:00,
2015-04-27 10:02:00,60.8,42.0,29.50,West,275,8.1,8.1,50,0.00,CLR,FEW,0.00,WeatherDisplay:10.37,2015-04-27 14:02:00,
2015-04-27 10:07:00,59.7,41.0,29.50,SSE,158,9.2,9.2,50,0.00,CLR,FEW,0.00,WeatherDisplay:10.37,2015-04-27 14:07:00,
2015-04-27 10:12:00,60.9,42.1,29.50,SSW,205,10.4,10.4,50,0.00,CLR,FEW,0.00,WeatherDisplay:10.37,2015-04-27 14:12:00,
2015-04-27 10:17:00,61.8,43.0,29.50,SW,233,12.7,12.7,50,0.00,CLR,FEW,0.00,WeatherDisplay:10.37,2015-04-27 14:17:00,
2015-04-27 10:22:00,60.9,42.1,29.50,SW,215,8.1,8.1,50,0.00,CLR,FEW,0.00,WeatherDisplay:10.37,2015-04-27 14:22:00,
2015-04-27 10:27:00,59.3,40.7,29.50,West,274,8.1,8.1,50,0.00,CLR,FEW,0.00,WeatherDisplay:10.37,2015-04-27 14:27:00,
2015-04-27 10:32:00,59.1,40.5,29.50,SW,216,12.7,12.7,50,0.00,CLR,FEW,0.00,WeatherDisplay:10.37,2015-04-27 14:32:00,
2015-04-27 10:37:00,58.8,40.2,29.50,South,185,9.2,9.2,50,0.00,CLR,FEW,0.00,WeatherDisplay:10.37,2015-04-27 14:37:00,
2015-04-27 10:42:00,59.7,41.0,29.50,WSW,257,15.0,15.0,50,0.00,CLR,FEW,0.00,WeatherDisplay:10.37,2015-04-27 14:42:00,
2015-04-27 10:47:00,59.1,40.5,29.50,WNW,298,15.0,15.0,50,0.00,CLR,FEW,0.00,WeatherDisplay:10.37,2015-04-27 14:47:00,
2015-04-27 10:52:00,58.9,40.3,29.50,SSW,212,15.0,15.0,50,0.00,CLR,FEW,0.00,WeatherDisplay:10.37,2015-04-27 14:52:00,
2015-04-27 10:57:00,59.5,40.8,29.50,SSW,193,11.5,11.5,50,0.00,CLR,FEW,0.00,WeatherDisplay:10.37,2015-04-27 14:57:00,
2015-04-27 11:02:00,59.7,41.0,29.49,SSW,199,9.2,9.2,50,0.00,CLR,FEW,0.00,WeatherDisplay:10.37,2015-04-27 15:02:00,
2015-04-27 11:07:00,60.6,41.8,29.50,SSW,199,8.1,8.1,50,0.00,CLR,FEW,0.00,WeatherDisplay:10.37,2015-04-27 15:07:00,
2015-04-27 11:12:00,60.2,41.5,29.50,South,191,10.4,10.4,50,0.00,CLR,FEW,0.00,WeatherDisplay:10.37,2015-04-27 15:12:00,
2015-04-27 11:17:00,59.8,41.1,29.50,South,174,13.8,13.8,50,0.00,CLR,FEW,0.00,WeatherDisplay:10.37,2015-04-27 15:17:00,
2015-04-27 11:22:00,60.4,41.7,29.50,SW,224,13.8,13.8,50,0.00,CLR,FEW,0.00,WeatherDisplay:10.37,2015-04-27 15:22:00,
2015-04-27 11:27:00,59.3,40.7,29.50,SW,230,15.4,15.4,50,0.00,CLR,FEW,0.00,WeatherDisplay:10.37,2015-04-27 15:27:00,
2015-04-27 11:32:00,59.5,40.8,29.50,SSW,196,9.4,9.4,50,0.00,CLR,FEW,0.00,WeatherDisplay:10.37,2015-04-27 15:32:00,
2015-04-27 11:37:00,60.0,41.3,29.50,SW,220,15.0,15.0,50,0.00,CLR,FEW,0.00,WeatherDisplay:10.37,2015-04-27 15:37:00,
2015-04-27 11:42:00,61.3,42.5,29.50,WSW,240,13.8,13.8,50,0.00,CLR,FEW,0.00,WeatherDisplay:10.37,2015-04-27 15:42:00,